Abumusa I., Abu Musa Island Airport (OIBA)

NameAbu Musa Island Airport
CityAbumusa I.
CountryIran
ICAOOIBA
IATAAEU
Altitude7 m
CoordinatesGoogle Map
Live Air TrafficLiveATC.net
METAROIBA 271300Z 28024KT 8000 NSC 22/14 Q1013
2020-02-27 13:00:00 Wind: West (280°) 12.35 m/s - Visibility: 8000 m - Temperature: 22 °C - Dew point: 14 °C - Humidity: 60.6% - Pressure: 1013 hPa

Sorry, no flights used the airport in this database.